Fork, South Carolina
Current Conditions -  °F | °C
As of 2:35 PM on Saturday 20 Dec 2014 (Local Time) from KMAO Reporting Station
Drizzle Drizzle  
Wind Chill: 45°   Ceiling: 5000
Heat Index: 45°   Visibility: 7mi
Dew Point: 39°   Wind: 0mph
Humidity: 81%   Direction: NA
Pressure: 30.21"   Gusts: NA
Location:  34.29°N, 79.28°W
Report Text: KMAO 201935Z AUTO 00000KT 7SM -DZ SCT029 BKN050 OVC080 07/04 A3021 RMK AO2
Loading
Personal Weather Stations






























Interactive Weather Map New forecast layout! Learn more

10-Day Weather Forecast

Advertisements
Track Severe Weather on mobile